Time;durP1;ratioP1;P1;durP2;ratioP2;P2;SDS_P1;SDS_P2;PMS_P1;PMS_P2;Temp;Humidity;BMP_temperature;BMP_pressure;BME280_temperature;BME280_humidity;BME280_pressure;Samples;Min_cycle;Max_cycle;Signal;HPM_P1;HPM_P2
2023/12/09 00:00:48;;;;;;;40.70;11.27;;;8.40;99.90;;;;;;5008238;28;20068;-71
2023/12/09 00:03:14;;;;;;;44.95;11.48;;;8.40;99.90;;;;;;5011003;28;20024;-71
2023/12/09 00:05:40;;;;;;;42.60;12.00;;;8.40;99.90;;;;;;5007188;28;20113;-71
2023/12/09 00:08:07;;;;;;;41.15;11.05;;;8.40;99.90;;;;;;5010285;28;20049;-73
2023/12/09 00:10:34;;;;;;;44.97;10.93;;;8.40;99.90;;;;;;5007106;28;20048;-71
2023/12/09 00:13:00;;;;;;;45.75;10.65;;;8.40;99.90;;;;;;5010888;28;20018;-71
2023/12/09 00:15:26;;;;;;;39.03;10.95;;;8.40;99.90;;;;;;5010975;28;20028;-76
2023/12/09 00:17:51;;;;;;;44.28;10.95;;;8.40;99.90;;;;;;5006195;28;20491;-72
2023/12/09 00:20:17;;;;;;;41.70;10.73;;;8.30;99.90;;;;;;5010026;28;20525;-71
2023/12/09 00:22:43;;;;;;;40.75;11.57;;;8.40;99.90;;;;;;5007222;28;20655;-70
2023/12/09 00:25:09;;;;;;;46.65;11.38;;;8.30;99.90;;;;;;5009688;28;20090;-72
2023/12/09 00:27:35;;;;;;;47.05;11.23;;;8.30;99.90;;;;;;5009511;28;20481;-72
2023/12/09 00:30:00;;;;;;;43.88;11.43;;;8.30;99.90;;;;;;5008589;28;20046;-71
2023/12/09 00:32:26;;;;;;;48.65;11.95;;;8.30;99.90;;;;;;5007397;28;20022;-75
2023/12/09 00:34:52;;;;;;;53.53;11.30;;;8.40;99.90;;;;;;5009404;28;20041;-71
2023/12/09 00:37:17;;;;;;;41.90;10.80;;;8.40;99.90;;;;;;5009108;28;20014;-74
2023/12/09 00:39:43;;;;;;;51.33;11.48;;;8.40;99.90;;;;;;5011821;28;20033;-71
2023/12/09 00:42:10;;;;;;;38.65;11.00;;;8.40;99.90;;;;;;5015012;28;20058;-74
2023/12/09 00:44:36;;;;;;;48.67;11.70;;;8.40;99.90;;;;;;5010648;28;20033;-70
2023/12/09 00:47:01;;;;;;;44.63;11.82;;;8.40;99.90;;;;;;5013486;28;20521;-71
2023/12/09 00:49:27;;;;;;;41.83;10.63;;;8.40;99.90;;;;;;5013545;28;20425;-72
2023/12/09 00:51:53;;;;;;;43.83;11.98;;;8.40;99.90;;;;;;5012730;28;20460;-71
2023/12/09 00:54:18;;;;;;;40.78;12.05;;;8.40;99.90;;;;;;5010627;28;20534;-71
2023/12/09 00:56:44;;;;;;;37.95;11.75;;;8.40;99.90;;;;;;5013461;28;20058;-74
2023/12/09 00:59:09;;;;;;;54.00;11.43;;;8.40;99.90;;;;;;5013399;28;20591;-71
2023/12/09 01:01:35;;;;;;;43.40;12.07;;;8.40;99.90;;;;;;5011414;28;20506;-75
2023/12/09 01:04:01;;;;;;;39.75;11.18;;;8.40;99.90;;;;;;5012903;28;20406;-72
2023/12/09 01:06:28;;;;;;;44.60;12.25;;;8.40;99.90;;;;;;5013784;28;20045;-71
2023/12/09 01:08:53;;;;;;;36.97;11.95;;;8.50;99.90;;;;;;5011989;28;20024;-71
2023/12/09 01:11:19;;;;;;;41.03;12.73;;;8.50;99.90;;;;;;5014826;28;20042;-70
2023/12/09 01:13:45;;;;;;;55.03;13.50;;;8.50;99.90;;;;;;5014018;28;20395;-71
2023/12/09 01:16:11;;;;;;;55.60;14.38;;;8.50;99.90;;;;;;5008681;28;20088;-71
2023/12/09 01:18:36;;;;;;;47.25;12.98;;;8.50;99.90;;;;;;5009014;28;20030;-72
2023/12/09 01:21:03;;;;;;;52.30;14.00;;;8.40;99.90;;;;;;5012322;28;20417;-74
2023/12/09 01:23:28;;;;;;;47.20;11.75;;;8.40;99.90;;;;;;4995160;28;20052;-71
2023/12/09 01:25:54;;;;;;;55.65;11.95;;;8.40;99.90;;;;;;5013407;28;20038;-70
2023/12/09 01:28:20;;;;;;;44.17;12.68;;;8.40;99.90;;;;;;5012864;28;20034;-72
2023/12/09 01:30:45;;;;;;;45.63;12.60;;;8.40;99.90;;;;;;5009552;28;20038;-70
2023/12/09 01:33:11;;;;;;;44.72;13.18;;;8.40;99.90;;;;;;5012905;28;20422;-70
2023/12/09 01:35:37;;;;;;;44.40;12.30;;;8.40;99.90;;;;;;5011687;28;20033;-75
2023/12/09 01:38:02;;;;;;;47.80;13.35;;;8.40;99.90;;;;;;5011990;28;20109;-71
2023/12/09 01:40:28;;;;;;;56.47;13.07;;;8.40;99.90;;;;;;5013238;28;20022;-74
2023/12/09 01:42:54;;;;;;;67.75;13.15;;;8.40;99.90;;;;;;5012824;28;20542;-72
2023/12/09 01:45:20;;;;;;;52.72;12.40;;;8.40;99.90;;;;;;4995908;28;20138;-71
2023/12/09 01:47:47;;;;;;;37.78;12.95;;;8.30;99.90;;;;;;4992049;28;20117;-70
2023/12/09 01:50:14;;;;;;;50.67;13.05;;;8.30;99.90;;;;;;5011548;28;20029;-71
2023/12/09 01:52:41;;;;;;;46.35;12.13;;;8.30;99.90;;;;;;5010636;28;20083;-71
2023/12/09 01:55:10;;;;;;;55.58;13.30;;;8.30;99.90;;;;;;5012942;28;20041;-71
2023/12/09 01:57:36;;;;;;;47.10;12.65;;;8.30;99.90;;;;;;5009076;28;20113;-71
2023/12/09 02:00:06;;;;;;;63.40;14.25;;;8.30;99.90;;;;;;5012976;28;20483;-71
2023/12/09 02:02:32;;;;;;;52.92;12.68;;;8.20;99.90;;;;;;5010084;28;20076;-71
2023/12/09 02:04:59;;;;;;;51.13;13.45;;;8.20;99.90;;;;;;5012805;28;20022;-72
2023/12/09 02:07:25;;;;;;;56.55;13.27;;;8.30;99.90;;;;;;5012423;28;20030;-71
2023/12/09 02:09:51;;;;;;;42.05;13.38;;;8.30;99.90;;;;;;5011829;28;20037;-73
2023/12/09 02:12:19;;;;;;;43.20;12.35;;;8.30;99.90;;;;;;5012695;28;20026;-71
2023/12/09 02:15:01;;;;;;;53.65;11.50;;;8.20;99.90;;;;;;5008409;28;20505;-71
2023/12/09 02:17:31;;;;;;;51.00;12.85;;;8.20;99.90;;;;;;5010340;28;20487;-71
2023/12/09 02:19:58;;;;;;;44.40;12.02;;;8.20;99.90;;;;;;5013001;28;20026;-71
2023/12/09 02:22:24;;;;;;;44.38;12.20;;;8.20;99.90;;;;;;5011112;28;20013;-71
2023/12/09 02:24:50;;;;;;;45.20;12.10;;;8.10;99.90;;;;;;5011992;28;20505;-71
2023/12/09 02:27:21;;;;;;;31.95;10.80;;;8.10;99.90;;;;;;5008608;28;20030;-70
2023/12/09 02:29:50;;;;;;;52.30;12.20;;;8.10;99.90;;;;;;5012094;28;20061;-73
2023/12/09 02:32:19;;;;;;;43.97;11.02;;;8.00;99.90;;;;;;5008923;28;20052;-71
2023/12/09 02:34:46;;;;;;;43.55;11.55;;;8.10;99.90;;;;;;5011435;28;20038;-71
2023/12/09 02:37:13;;;;;;;48.92;11.63;;;8.00;99.90;;;;;;5009426;28;20112;-71
2023/12/09 02:39:39;;;;;;;41.75;12.15;;;8.00;99.90;;;;;;5011527;28;20093;-76
2023/12/09 02:42:06;;;;;;;41.28;11.95;;;8.10;99.90;;;;;;5010859;28;20479;-72
2023/12/09 02:44:33;;;;;;;54.35;13.10;;;8.00;99.90;;;;;;5009589;28;20044;-71
2023/12/09 02:46:58;;;;;;;44.60;12.70;;;8.10;99.90;;;;;;5012188;28;20021;-70
2023/12/09 02:49:24;;;;;;;42.33;12.35;;;8.00;99.90;;;;;;5010683;28;20481;-71
2023/12/09 02:51:50;;;;;;;56.30;12.98;;;8.00;99.90;;;;;;4994817;28;20042;-71
2023/12/09 02:54:15;;;;;;;44.00;11.63;;;8.00;99.90;;;;;;5009605;28;20015;-73
2023/12/09 02:56:41;;;;;;;52.88;12.25;;;8.00;99.90;;;;;;5009864;28;20041;-72
2023/12/09 02:59:07;;;;;;;51.88;11.93;;;8.00;99.90;;;;;;5010083;28;20522;-71
2023/12/09 03:01:32;;;;;;;56.05;12.88;;;7.90;99.90;;;;;;5011052;28;20372;-71
2023/12/09 03:03:58;;;;;;;45.35;12.20;;;8.00;99.90;;;;;;5012795;28;20471;-71
2023/12/09 03:06:24;;;;;;;49.92;11.80;;;8.00;99.90;;;;;;5006546;28;20361;-70
2023/12/09 03:08:49;;;;;;;48.35;13.15;;;7.90;99.90;;;;;;5011129;28;20493;-71
2023/12/09 03:11:15;;;;;;;62.00;13.20;;;7.90;99.90;;;;;;5007861;28;20607;-73
2023/12/09 03:13:41;;;;;;;42.88;11.68;;;7.90;99.90;;;;;;5009701;28;20038;-72
2023/12/09 03:16:07;;;;;;;46.92;13.80;;;7.90;99.90;;;;;;5010641;28;20121;-71
2023/12/09 03:18:32;;;;;;;51.75;13.52;;;7.90;99.90;;;;;;5007243;28;20541;-71
2023/12/09 03:20:58;;;;;;;51.80;13.93;;;7.90;99.90;;;;;;5009679;28;20025;-70
2023/12/09 03:23:24;;;;;;;49.35;11.82;;;7.90;99.90;;;;;;5009371;28;20516;-71
2023/12/09 03:25:49;;;;;;;43.60;12.93;;;7.90;99.90;;;;;;5009682;28;20050;-70
2023/12/09 03:28:15;;;;;;;57.40;13.27;;;7.90;99.90;;;;;;5008747;28;20538;-70
2023/12/09 03:30:41;;;;;;;45.97;11.85;;;7.90;99.90;;;;;;5011064;28;20100;-70
2023/12/09 03:33:07;;;;;;;62.63;13.38;;;7.90;99.90;;;;;;5009203;28;20029;-71
2023/12/09 03:35:33;;;;;;;44.78;12.68;;;7.90;99.90;;;;;;5010519;28;20113;-70
2023/12/09 03:37:58;;;;;;;50.92;13.43;;;7.90;99.90;;;;;;5009088;28;20106;-71
2023/12/09 03:40:24;;;;;;;43.10;12.93;;;7.90;99.90;;;;;;5011262;28;20485;-71
2023/12/09 03:42:49;;;;;;;39.97;11.98;;;7.90;99.90;;;;;;4993159;28;20534;-71
2023/12/09 03:45:15;;;;;;;46.05;11.88;;;7.90;99.90;;;;;;5009521;28;20391;-70
2023/12/09 03:47:41;;;;;;;48.92;12.57;;;7.90;99.90;;;;;;5007933;28;20475;-71
2023/12/09 03:50:07;;;;;;;51.50;12.40;;;7.80;99.90;;;;;;5008285;28;20044;-71
2023/12/09 03:52:33;;;;;;;45.05;11.52;;;7.90;99.90;;;;;;5010312;28;20018;-71
2023/12/09 03:54:58;;;;;;;44.38;11.82;;;7.90;99.90;;;;;;5011559;28;20026;-71
2023/12/09 03:57:25;;;;;;;41.08;11.65;;;7.90;99.90;;;;;;5011269;28;20466;-71
2023/12/09 03:59:50;;;;;;;48.83;11.35;;;7.90;99.90;;;;;;5012080;28;20064;-74
2023/12/09 04:02:18;;;;;;;46.15;11.90;;;7.80;99.90;;;;;;5010746;28;20057;-71
2023/12/09 04:04:44;;;;;;;38.78;11.48;;;7.70;99.90;;;;;;5010516;28;20037;-71
2023/12/09 04:07:09;;;;;;;45.05;11.73;;;7.70;99.90;;;;;;5008495;28;20021;-70
2023/12/09 04:09:35;;;;;;;45.88;10.75;;;7.80;99.90;;;;;;5010213;28;20080;-70
2023/12/09 04:12:01;;;;;;;36.58;10.68;;;7.70;99.90;;;;;;4992461;28;20046;-70
2023/12/09 04:14:26;;;;;;;44.97;11.57;;;7.70;99.90;;;;;;5009195;28;20139;-73
2023/12/09 04:16:52;;;;;;;37.08;10.45;;;7.80;99.90;;;;;;5010581;28;20152;-73
2023/12/09 04:19:18;;;;;;;45.22;11.93;;;7.80;99.90;;;;;;5007888;28;20038;-71
2023/12/09 04:21:43;;;;;;;38.38;10.48;;;7.80;99.90;;;;;;5008277;28;20022;-70
2023/12/09 04:24:09;;;;;;;41.13;10.18;;;7.80;99.90;;;;;;5010389;28;20482;-71
2023/12/09 04:26:35;;;;;;;39.28;9.95;;;7.80;99.90;;;;;;5009481;28;20490;-71
2023/12/09 04:29:00;;;;;;;41.75;9.32;;;7.70;99.90;;;;;;5010017;28;20112;-70
2023/12/09 04:31:26;;;;;;;44.95;11.10;;;7.70;99.90;;;;;;5009813;28;20518;-71
2023/12/09 04:33:52;;;;;;;38.28;9.35;;;7.60;99.90;;;;;;5011382;28;20021;-70
2023/12/09 04:36:18;;;;;;;51.38;10.27;;;7.70;99.90;;;;;;5009330;28;20525;-70
2023/12/09 04:38:43;;;;;;;45.95;9.82;;;7.70;99.90;;;;;;5008128;28;20022;-70
2023/12/09 04:41:09;;;;;;;30.65;9.35;;;7.70;99.90;;;;;;5009974;28;20487;-70
2023/12/09 04:43:34;;;;;;;43.80;10.68;;;7.70;99.90;;;;;;5007580;28;20386;-71
2023/12/09 04:46:00;;;;;;;35.67;9.20;;;7.80;99.90;;;;;;5011014;28;20026;-70
2023/12/09 04:48:26;;;;;;;37.13;9.02;;;7.70;99.90;;;;;;5007165;28;20529;-70
2023/12/09 04:50:52;;;;;;;41.55;9.43;;;7.70;99.90;;;;;;5010283;28;20038;-70
2023/12/09 04:53:18;;;;;;;41.65;8.75;;;7.70;99.90;;;;;;5007049;28;20036;-70
2023/12/09 04:55:44;;;;;;;36.53;8.25;;;7.80;99.90;;;;;;5010110;28;20108;-70
2023/12/09 04:58:10;;;;;;;43.78;8.18;;;7.70;99.90;;;;;;5008558;28;20386;-70
2023/12/09 05:00:36;;;;;;;36.10;9.70;;;7.80;99.90;;;;;;5007500;28;20037;-70
2023/12/09 05:03:01;;;;;;;46.67;9.00;;;7.80;99.90;;;;;;5009733;28;20025;-70
2023/12/09 05:05:27;;;;;;;36.90;8.50;;;7.80;99.90;;;;;;5005928;28;20394;-71
2023/12/09 05:07:53;;;;;;;28.95;7.80;;;7.80;99.90;;;;;;5008398;28;20437;-71
2023/12/09 05:10:18;;;;;;;39.92;9.32;;;7.80;99.90;;;;;;5009017;28;20034;-71
2023/12/09 05:12:44;;;;;;;36.72;8.98;;;7.80;99.90;;;;;;5008205;28;20579;-71
2023/12/09 05:15:10;;;;;;;38.63;9.55;;;7.80;99.90;;;;;;5009760;28;20026;-71
2023/12/09 05:17:36;;;;;;;33.92;9.52;;;7.70;99.90;;;;;;5007527;28;20561;-71
2023/12/09 05:20:04;;;;;;;35.42;8.05;;;7.80;99.90;;;;;;5009404;28;20046;-71
2023/12/09 05:22:29;;;;;;;40.10;9.13;;;7.80;99.90;;;;;;5006896;28;20418;-71
2023/12/09 05:24:55;;;;;;;33.50;9.25;;;7.70;99.90;;;;;;5012012;28;20041;-71
2023/12/09 05:27:20;;;;;;;42.13;9.57;;;7.70;99.90;;;;;;5010746;28;20406;-71
2023/12/09 05:29:46;;;;;;;38.00;9.52;;;7.70;99.90;;;;;;5012997;28;20556;-74
2023/12/09 05:32:12;;;;;;;41.92;8.98;;;7.70;99.90;;;;;;5011896;28;20030;-72
2023/12/09 05:34:37;;;;;;;31.45;8.75;;;7.70;99.90;;;;;;5012091;28;20485;-71
2023/12/09 05:37:04;;;;;;;34.88;9.25;;;7.70;99.90;;;;;;5008892;28;20077;-71
2023/12/09 05:39:31;;;;;;;36.63;9.60;;;7.70;99.90;;;;;;5012949;28;20095;-71
2023/12/09 05:41:56;;;;;;;37.42;9.48;;;7.80;99.90;;;;;;5011769;28;20041;-71
2023/12/09 05:44:22;;;;;;;35.20;9.23;;;7.70;99.90;;;;;;5011488;28;20099;-71
2023/12/09 05:46:47;;;;;;;30.98;8.15;;;7.80;99.90;;;;;;5011334;28;20100;-71
2023/12/09 05:49:13;;;;;;;42.90;8.40;;;7.70;99.90;;;;;;5012495;28;20540;-71
2023/12/09 05:51:42;;;;;;;31.08;9.23;;;7.70;99.90;;;;;;5012842;28;20629;-71
2023/12/09 05:54:07;;;;;;;32.78;8.75;;;7.70;99.90;;;;;;5009733;28;20033;-71
2023/12/09 05:56:33;;;;;;;29.80;8.88;;;7.80;99.90;;;;;;5013066;28;20364;-71
2023/12/09 05:58:59;;;;;;;33.53;8.23;;;7.60;99.90;;;;;;5010137;28;20955;-71
2023/12/09 06:01:24;;;;;;;38.10;8.75;;;7.70;99.90;;;;;;5012684;28;20060;-71
2023/12/09 06:03:50;;;;;;;36.10;8.07;;;7.70;99.90;;;;;;5010597;28;20570;-71
2023/12/09 06:06:16;;;;;;;30.42;8.15;;;7.70;99.90;;;;;;5013023;28;20375;-71
2023/12/09 06:08:41;;;;;;;22.70;7.78;;;7.80;99.90;;;;;;4996160;28;20493;-71
2023/12/09 06:11:07;;;;;;;29.10;7.80;;;7.80;99.90;;;;;;5010331;28;20035;-71
2023/12/09 06:13:33;;;;;;;33.08;8.85;;;7.80;99.90;;;;;;5012742;28;20033;-71
2023/12/09 06:15:58;;;;;;;24.60;8.57;;;7.80;99.90;;;;;;5012058;28;20026;-71
2023/12/09 06:18:25;;;;;;;33.88;8.88;;;7.80;99.90;;;;;;4990486;28;20018;-71
2023/12/09 06:20:51;;;;;;;29.63;8.02;;;7.80;99.90;;;;;;5009918;28;20383;-71
2023/12/09 06:23:16;;;;;;;32.25;8.93;;;7.80;99.90;;;;;;5010934;28;20028;-72
2023/12/09 06:25:42;;;;;;;31.15;9.05;;;7.80;99.90;;;;;;5011223;28;20494;-71
2023/12/09 06:28:08;;;;;;;28.85;8.75;;;7.80;99.90;;;;;;5009310;28;20053;-72
2023/12/09 06:30:34;;;;;;;29.52;7.82;;;7.80;99.90;;;;;;4991271;28;20034;-71
2023/12/09 06:33:00;;;;;;;41.05;10.30;;;7.90;99.90;;;;;;5012274;28;20033;-71
2023/12/09 06:35:26;;;;;;;35.65;8.77;;;7.80;99.90;;;;;;5009286;28;20039;-71
2023/12/09 06:37:54;;;;;;;33.97;8.93;;;7.90;99.90;;;;;;5010889;28;20030;-71
2023/12/09 06:40:21;;;;;;;32.45;7.88;;;7.80;99.90;;;;;;5010227;28;20105;-70
2023/12/09 06:42:46;;;;;;;37.05;10.05;;;7.80;99.90;;;;;;5012216;28;20526;-71
2023/12/09 06:45:12;;;;;;;29.30;8.35;;;7.80;99.90;;;;;;5009684;28;20080;-70
2023/12/09 06:47:38;;;;;;;36.28;8.48;;;7.80;99.90;;;;;;5011472;28;20506;-71
2023/12/09 06:50:04;;;;;;;36.80;9.35;;;7.80;99.90;;;;;;5009670;28;20026;-71
2023/12/09 06:52:30;;;;;;;32.88;9.32;;;7.90;99.90;;;;;;5011284;28;20033;-72
2023/12/09 06:54:55;;;;;;;33.00;8.63;;;7.80;99.90;;;;;;5010257;28;20033;-71
2023/12/09 06:57:21;;;;;;;36.45;9.32;;;7.80;99.90;;;;;;5010286;28;20052;-71
2023/12/09 06:59:47;;;;;;;33.03;8.90;;;7.80;99.90;;;;;;5012143;28;20072;-71
2023/12/09 07:02:12;;;;;;;37.03;10.63;;;7.90;99.90;;;;;;5009031;28;20470;-70
2023/12/09 07:04:38;;;;;;;28.50;8.80;;;7.90;99.90;;;;;;5009268;28;20417;-71
2023/12/09 07:07:06;;;;;;;34.75;10.10;;;7.80;99.90;;;;;;5010877;28;20475;-71
2023/12/09 07:09:31;;;;;;;28.77;7.90;;;7.80;99.90;;;;;;5009568;28;20024;-71
2023/12/09 07:11:57;;;;;;;31.35;10.73;;;7.80;99.90;;;;;;4992177;28;20395;-71
2023/12/09 07:14:23;;;;;;;29.88;9.88;;;7.80;99.90;;;;;;5011850;28;20037;-70
2023/12/09 07:16:49;;;;;;;35.30;9.00;;;7.90;99.90;;;;;;5011291;28;20363;-71
2023/12/09 07:19:14;;;;;;;34.17;8.98;;;7.80;99.90;;;;;;5009825;28;20052;-72
2023/12/09 07:21:40;;;;;;;27.98;8.15;;;7.90;99.90;;;;;;5011011;28;20509;-70
2023/12/09 07:24:06;;;;;;;39.40;8.52;;;8.00;99.90;;;;;;5009413;28;20430;-71
2023/12/09 07:26:32;;;;;;;26.40;7.45;;;8.00;99.90;;;;;;5011362;28;20130;-71
2023/12/09 07:28:57;;;;;;;24.88;7.40;;;7.90;99.90;;;;;;5009365;28;20038;-72
2023/12/09 07:31:23;;;;;;;18.63;6.18;;;8.00;99.90;;;;;;5011195;28;20041;-71
2023/12/09 07:33:49;;;;;;;21.10;7.30;;;7.90;99.90;;;;;;5009529;28;20080;-70
2023/12/09 07:36:14;;;;;;;26.98;7.20;;;8.00;99.90;;;;;;5010821;28;20085;-71
2023/12/09 07:38:40;;;;;;;28.67;7.18;;;8.10;99.90;;;;;;5008652;28;20482;-71
2023/12/09 07:41:06;;;;;;;25.50;6.78;;;8.10;99.90;;;;;;5011665;28;20056;-71
2023/12/09 07:43:32;;;;;;;30.45;7.25;;;8.10;99.90;;;;;;5010208;28;20048;-71
2023/12/09 07:45:57;;;;;;;37.58;6.35;;;8.10;99.90;;;;;;5007443;28;20034;-71
2023/12/09 07:48:23;;;;;;;27.90;6.20;;;8.10;99.90;;;;;;4992325;28;20064;-71
2023/12/09 07:50:49;;;;;;;18.55;5.80;;;8.10;99.90;;;;;;5009285;28;20026;-71
2023/12/09 07:53:15;;;;;;;23.27;6.28;;;8.20;99.90;;;;;;5010769;28;20108;-71
2023/12/09 07:55:40;;;;;;;16.25;5.10;;;8.20;99.90;;;;;;5008236;28;20029;-71
2023/12/09 07:58:06;;;;;;;27.35;6.50;;;8.20;99.90;;;;;;5003234;28;20499;-71
2023/12/09 08:00:32;;;;;;;33.67;6.15;;;8.20;99.90;;;;;;5010466;28;20032;-70
2023/12/09 08:03:04;;;;;;;35.10;6.68;;;8.20;99.90;;;;;;4992364;28;20034;-69
2023/12/09 08:05:30;;;;;;;24.30;5.25;;;8.30;99.90;;;;;;5009840;28;20522;-68
2023/12/09 08:07:56;;;;;;;23.20;5.72;;;8.30;99.90;;;;;;5008900;28;20482;-72
2023/12/09 08:10:22;;;;;;;20.38;5.28;;;8.30;99.90;;;;;;4990886;28;20080;-72
2023/12/09 08:12:47;;;;;;;22.42;6.07;;;8.30;99.90;;;;;;5001116;28;20041;-72
2023/12/09 08:15:13;;;;;;;32.95;5.93;;;8.40;99.90;;;;;;5008514;28;20030;-71
2023/12/09 08:17:40;;;;;;;16.95;5.10;;;8.30;99.90;;;;;;5007180;28;20038;-69
2023/12/09 08:20:10;;;;;;;26.52;5.40;;;8.50;99.90;;;;;;5006074;28;20022;-69
2023/12/09 08:22:38;;;;;;;17.10;4.63;;;8.40;99.90;;;;;;5008514;28;20030;-70
2023/12/09 08:25:07;;;;;;;22.98;5.28;;;8.50;99.90;;;;;;5010938;28;20025;-70
2023/12/09 08:27:33;;;;;;;17.98;4.65;;;8.50;99.90;;;;;;5000412;28;20097;-72
2023/12/09 08:29:58;;;;;;;25.70;5.43;;;8.50;99.90;;;;;;4972960;28;20093;-71
2023/12/09 08:32:24;;;;;;;19.17;5.55;;;8.60;99.90;;;;;;4995202;28;20045;-70
2023/12/09 08:34:50;;;;;;;20.33;4.82;;;8.60;99.90;;;;;;4996332;28;20015;-69
2023/12/09 08:37:24;;;;;;;15.82;4.53;;;8.60;99.90;;;;;;4977007;28;20076;-69
2023/12/09 08:39:56;;;;;;;15.82;4.53;;;8.60;99.90;;;;;;4999966;28;20112;-73
2023/12/09 08:42:21;;;;;;;22.92;5.85;;;8.60;99.90;;;;;;4996697;28;20141;-71
2023/12/09 08:44:47;;;;;;;19.30;5.25;;;8.70;99.90;;;;;;4984159;28;20113;-72
2023/12/09 08:47:13;;;;;;;16.73;4.72;;;8.70;99.90;;;;;;4998002;28;20418;-71
2023/12/09 08:49:39;;;;;;;18.20;4.38;;;8.70;99.90;;;;;;4982313;28;20458;-75
2023/12/09 08:52:05;;;;;;;23.85;4.38;;;8.70;99.90;;;;;;4985374;28;20044;-74
2023/12/09 08:54:31;;;;;;;19.95;4.20;;;8.90;99.90;;;;;;4997897;28;20034;-72
2023/12/09 08:56:57;;;;;;;19.90;4.43;;;8.90;99.90;;;;;;4997806;28;20093;-72
2023/12/09 08:59:22;;;;;;;18.20;4.15;;;8.90;99.90;;;;;;4998548;28;20030;-74
2023/12/09 09:01:48;;;;;;;13.95;4.13;;;8.90;99.90;;;;;;5002029;28;20144;-70
2023/12/09 09:04:14;;;;;;;18.23;4.47;;;8.90;99.90;;;;;;5000368;28;20034;-71
2023/12/09 09:06:40;;;;;;;10.55;3.47;;;8.90;99.90;;;;;;5000966;28;21253;-80
2023/12/09 09:09:05;;;;;;;13.15;3.60;;;8.90;99.90;;;;;;5001014;28;20030;-73
2023/12/09 09:11:31;;;;;;;17.23;3.70;;;9.00;99.90;;;;;;5002626;28;20398;-72
2023/12/09 09:13:57;;;;;;;17.98;4.18;;;9.00;99.90;;;;;;4997924;28;20053;-72
2023/12/09 09:16:26;;;;;;;17.55;4.05;;;9.00;99.90;;;;;;4998371;28;20029;-71
2023/12/09 09:18:52;;;;;;;17.35;4.35;;;9.00;99.90;;;;;;5002491;28;20144;-72
2023/12/09 09:21:18;;;;;;;15.35;4.07;;;9.00;99.90;;;;;;4999499;28;20022;-73
2023/12/09 09:23:44;;;;;;;17.35;4.15;;;9.10;99.90;;;;;;5002075;28;20022;-74
2023/12/09 09:26:10;;;;;;;24.75;4.72;;;9.10;99.90;;;;;;5003761;28;20037;-72
2023/12/09 09:28:36;;;;;;;16.13;4.35;;;9.10;99.90;;;;;;5000357;28;20037;-72
2023/12/09 09:31:02;;;;;;;15.48;4.40;;;9.20;99.90;;;;;;5002981;28;20608;-73
2023/12/09 09:33:28;;;;;;;10.30;4.05;;;9.20;99.90;;;;;;4999822;28;20018;-72
2023/12/09 09:35:54;;;;;;;20.85;4.10;;;9.10;99.90;;;;;;5000187;28;20131;-71
2023/12/09 09:38:20;;;;;;;17.40;3.63;;;9.20;99.90;;;;;;4999564;28;20017;-72
2023/12/09 09:40:46;;;;;;;9.82;3.10;;;9.20;99.90;;;;;;5000569;28;20041;-72
2023/12/09 09:43:20;;;;;;;15.73;4.10;;;9.30;99.90;;;;;;4997585;28;20053;-72
2023/12/09 09:45:47;;;;;;;13.15;4.57;;;9.30;99.90;;;;;;5001932;28;20108;-71
2023/12/09 09:48:20;;;;;;;18.60;4.20;;;9.40;99.90;;;;;;5001625;28;20048;-72
2023/12/09 09:50:50;;;;;;;14.63;3.60;;;9.50;99.90;;;;;;5005016;28;20033;-73
2023/12/09 09:53:24;;;;;;;16.08;2.92;;;9.50;99.90;;;;;;5001044;28;20026;-72
2023/12/09 09:55:51;;;;;;;10.43;3.17;;;9.50;99.90;;;;;;5001365;28;20038;-72
2023/12/09 09:58:18;;;;;;;19.50;3.67;;;9.50;99.90;;;;;;4999398;28;20038;-72
2023/12/09 10:00:43;;;;;;;18.67;3.95;;;9.60;99.90;;;;;;5000681;28;20536;-73
2023/12/09 10:03:09;;;;;;;19.63;3.70;;;9.60;99.90;;;;;;5000873;28;20026;-72
2023/12/09 10:05:35;;;;;;;13.93;3.55;;;9.70;99.90;;;;;;5000606;28;20030;-73
2023/12/09 10:08:05;;;;;;;15.75;4.93;;;9.70;99.90;;;;;;5002830;28;20145;-73
2023/12/09 10:10:33;;;;;;;16.77;4.30;;;9.60;99.90;;;;;;5000352;28;20387;-74
2023/12/09 10:12:59;;;;;;;15.15;3.80;;;9.70;99.90;;;;;;4999893;28;20116;-73
2023/12/09 10:15:25;;;;;;;16.85;3.60;;;9.60;99.90;;;;;;5001748;28;20022;-73
2023/12/09 10:17:51;;;;;;;13.02;3.33;;;9.60;99.90;;;;;;4998315;28;20045;-73
2023/12/09 10:20:17;;;;;;;16.27;4.35;;;9.60;99.90;;;;;;5001294;28;22687;-74
2023/12/09 10:22:45;;;;;;;14.82;3.10;;;9.70;99.90;;;;;;5001024;28;20073;-77
2023/12/09 10:25:21;;;;;;;15.10;4.00;;;9.60;99.90;;;;;;5000456;28;20065;-71
2023/12/09 10:27:47;;;;;;;14.20;4.05;;;9.60;99.90;;;;;;5000032;28;20014;-71
2023/12/09 10:30:13;;;;;;;11.13;3.35;;;9.70;99.90;;;;;;4997524;28;20034;-70
2023/12/09 10:32:39;;;;;;;17.70;3.22;;;9.70;99.90;;;;;;5002221;28;20022;-71
2023/12/09 10:35:05;;;;;;;9.88;3.03;;;9.60;99.90;;;;;;5000380;28;20040;-72
2023/12/09 10:37:31;;;;;;;12.98;3.40;;;9.60;99.90;;;;;;5001985;28;20097;-70
2023/12/09 10:40:03;;;;;;;9.35;2.50;;;9.60;99.90;;;;;;4997774;28;20072;-78
2023/12/09 10:42:30;;;;;;;9.20;3.25;;;9.60;99.90;;;;;;4999470;28;20019;-71
2023/12/09 10:44:55;;;;;;;10.13;3.10;;;9.60;99.90;;;;;;4997847;28;20044;-71
2023/12/09 10:47:21;;;;;;;11.30;2.70;;;9.70;99.90;;;;;;5001177;28;20034;-70
2023/12/09 10:49:47;;;;;;;10.93;2.40;;;9.60;99.90;;;;;;4998739;28;20110;-72
2023/12/09 10:52:13;;;;;;;11.07;2.63;;;9.60;99.90;;;;;;4998861;28;20117;-69
2023/12/09 10:54:39;;;;;;;9.50;2.10;;;9.70;99.90;;;;;;4998297;28;20117;-72
2023/12/09 10:57:05;;;;;;;9.23;2.00;;;9.60;99.90;;;;;;4996677;28;20053;-72
2023/12/09 10:59:34;;;;;;;8.18;2.08;;;9.60;99.90;;;;;;4999098;28;20582;-69
2023/12/09 11:02:00;;;;;;;5.85;1.63;;;9.60;99.90;;;;;;4999386;28;20028;-70
2023/12/09 11:04:28;;;;;;;6.72;2.28;;;9.60;99.90;;;;;;4999523;28;20030;-73
2023/12/09 11:06:58;;;;;;;9.50;2.25;;;9.70;99.90;;;;;;4994200;28;20113;-73
2023/12/09 11:09:26;;;;;;;10.38;2.17;;;9.60;99.90;;;;;;4984575;28;20391;-78
2023/12/09 11:11:52;;;;;;;9.18;2.47;;;9.70;99.90;;;;;;5002153;28;20033;-72
2023/12/09 11:14:18;;;;;;;7.72;2.42;;;9.70;99.90;;;;;;4998024;28;20510;-72
2023/12/09 11:16:46;;;;;;;8.93;2.28;;;9.70;99.90;;;;;;5002527;28;20018;-72
2023/12/09 11:19:19;;;;;;;7.57;2.40;;;9.70;99.90;;;;;;4978322;28;20014;-71
2023/12/09 11:21:46;;;;;;;5.57;2.33;;;9.70;99.90;;;;;;4999201;28;20030;-72
2023/12/09 11:24:13;;;;;;;8.05;2.13;;;9.70;99.90;;;;;;4999462;28;20137;-71
2023/12/09 11:26:41;;;;;;;10.00;2.35;;;9.60;99.90;;;;;;4999245;28;20030;-70
2023/12/09 11:29:09;;;;;;;7.45;2.45;;;9.70;99.90;;;;;;4997153;28;20161;-72
2023/12/09 11:31:48;;;;;;;11.10;2.85;;;9.70;99.90;;;;;;4985501;28;20620;-72
2023/12/09 11:34:16;;;;;;;11.85;3.60;;;9.70;99.90;;;;;;4997426;28;20026;-71
2023/12/09 11:36:43;;;;;;;8.23;2.60;;;9.70;99.90;;;;;;4996814;28;20063;-70
2023/12/09 11:39:17;;;;;;;10.80;2.70;;;9.70;99.90;;;;;;5002326;28;20048;-71
2023/12/09 11:41:44;;;;;;;6.25;3.30;;;9.70;99.90;;;;;;4998063;28;20041;-70
2023/12/09 11:44:11;;;;;;;11.55;2.35;;;9.60;99.90;;;;;;4997624;28;20621;-70
2023/12/09 11:46:37;;;;;;;7.65;2.20;;;9.60;99.90;;;;;;4981765;28;20041;-70
2023/12/09 11:49:05;;;;;;;7.68;2.22;;;9.70;99.90;;;;;;4985668;28;20530;-70
2023/12/09 11:51:33;;;;;;;10.48;3.00;;;9.60;99.90;;;;;;4998098;28;20050;-69
2023/12/09 11:54:01;;;;;;;5.00;2.13;;;9.60;99.90;;;;;;4996167;28;20014;-71
2023/12/09 11:56:27;;;;;;;5.03;1.40;;;9.50;99.90;;;;;;4997684;28;20030;-69
2023/12/09 11:58:54;;;;;;;5.25;1.40;;;9.40;99.90;;;;;;4996820;28;20010;-71
2023/12/09 12:01:20;;;;;;;4.15;1.10;;;9.40;99.90;;;;;;4994915;28;20026;-70
2023/12/09 12:03:49;;;;;;;4.50;1.10;;;9.40;99.90;;;;;;4999471;28;20022;-70
2023/12/09 12:06:16;;;;;;;3.13;1.27;;;9.40;99.90;;;;;;4998862;28;20467;-70
2023/12/09 12:08:52;;;;;;;3.05;1.42;;;9.40;99.90;;;;;;4999045;28;20030;-71
2023/12/09 12:11:21;;;;;;;2.25;0.75;;;9.40;99.90;;;;;;4995238;28;20030;-69
2023/12/09 12:13:47;;;;;;;5.05;1.05;;;9.40;99.90;;;;;;4997225;28;20460;-70
2023/12/09 12:16:13;;;;;;;4.30;1.17;;;9.40;99.90;;;;;;4997860;28;20029;-71
2023/12/09 12:18:39;;;;;;;5.00;1.50;;;9.40;99.90;;;;;;4998976;28;20418;-69
2023/12/09 12:21:06;;;;;;;2.78;1.70;;;9.40;99.90;;;;;;4996469;28;20488;-70
2023/12/09 12:23:33;;;;;;;3.03;1.30;;;9.40;99.90;;;;;;4996912;28;20037;-69
2023/12/09 12:25:59;;;;;;;4.25;1.75;;;9.40;99.90;;;;;;4998376;28;20117;-70
2023/12/09 12:28:25;;;;;;;2.38;0.90;;;9.40;99.90;;;;;;4995656;28;20022;-75
2023/12/09 12:30:56;;;;;;;3.00;1.00;;;9.40;99.90;;;;;;4998041;28;20060;-70
2023/12/09 12:33:25;;;;;;;4.03;0.98;;;9.30;99.90;;;;;;4996144;28;20030;-70
2023/12/09 12:35:55;;;;;;;3.45;1.40;;;9.30;99.90;;;;;;5002544;28;20646;-70
2023/12/09 12:38:22;;;;;;;4.75;1.15;;;9.30;99.90;;;;;;5003556;28;20026;-70
2023/12/09 12:40:49;;;;;;;2.85;0.80;;;9.30;99.90;;;;;;5000772;28;20031;-72